Strona główna
METAR-TAF:

METAR-TAF

Lotnisko :

Port lotniczy Siem Reap

Siem Reap, Kambodża

Szerokość geograficzna: 13-22N, Długość geograficzna: 103-51E, wysokość: 15 m

Aktualna obserwacja pogody

Raport powstał 34 minut temu, godzina 03:30 UTC
Wiatr 4 kt od wschód, zmienny między północ i południowy wschód
Temperatura 26°C
Wilgotność 54%
Ciśnienie 1014 hPa
Widzialność 10 km lub więcej
Mało chmury na wysokości 1700 ft

METAR: VDSR 110330Z 08004KT 360V130 9999 FEW017 26/16 Q1014

czas: 11:04 (04:04 UTC)

Prognoza

Raport powstał 5 godziny i 4 minut temu, godzina 23:00 UTC
Prognoza ważna od 11 godzina 00 UTC do 11 godzina 18 UTC
Wiatr 9 kt od północ
Widzialność 10 km lub więcej
Rozproszone chmury na wysokości 1700 ft

TAF: VDSR 102300Z 1100/1118 36009KT 9999 SCT017

Obserwacja i prognoza pogody dla ponad 4000 lotnisk (raport METAR i TAF).

Dostępne stacje oznaczono żółtymi i czerwonymi punktami na mapie.

Najedź kursorem aby zobaczyć nazwę stacji.

Kliknij aby zobaczyć obserwacje i prognozy pogody.

Aby zmienić mapę: kliknij na zielony przycisk z czarnym krzyżykiem, aby powiększyć; na zielony przycisk z myślnikiem, aby pomniejszyć; na zielone strzałki, aby przejść do map sąsiednich.


METAR-TAF: